Marietta, Texas
Current Conditions -  °F | °C
As of 8:35 AM on Monday 22 Dec 2014 (Local Time) from KOSA Reporting Station
Broken Clouds Broken Clouds  
Wind Chill: 56°   Ceiling: 4100
Heat Index: 56°   Visibility: 5mi
Dew Point: 53°   Wind: 10mph
Humidity: 91%   Direction: 160°SSE
Pressure: 29.67"   Gusts: NA
Location:  33.17°N, 94.54°W
Report Text: KOSA 221435Z AUTO 16009KT 5SM SCT013 SCT028 BKN041 13/12 A2967 RMK AO1 T01320117
Loading
Personal Weather Stations






























Interactive Weather Map New forecast layout! Learn more

10-Day Weather Forecast

Advertisements
Track Severe Weather on mobile